Time;durP1;ratioP1;P1;durP2;ratioP2;P2;SDS_P1;SDS_P2;PMS_P1;PMS_P2;Temp;Humidity;BMP_temperature;BMP_pressure;BME280_temperature;BME280_humidity;BME280_pressure;Samples;Min_cycle;Max_cycle;Signal;HPM_P1;HPM_P2
2021/03/02 00:01:47;;;;;;;38.95;20.92;;;128.50;1766.40;;;;;;5094240;28;20020;-72
2021/03/02 00:04:13;;;;;;;40.38;20.10;;;128.50;1792.00;;;;;;5094509;28;20027;-72
2021/03/02 00:06:39;;;;;;;34.90;19.87;;;128.50;1792.00;;;;;;5094272;28;20032;-73
2021/03/02 00:09:06;;;;;;;31.88;18.42;;;128.40;1843.20;;;;;;5094355;28;20031;-72
2021/03/02 00:11:32;;;;;;;37.75;20.08;;;128.40;1792.00;;;;;;5094125;28;20422;-72
2021/03/02 00:13:58;;;;;;;35.30;21.15;;;128.30;1843.20;;;;;;5092895;28;20024;-72
2021/03/02 00:16:26;;;;;;;35.17;19.58;;;128.30;1817.60;;;;;;5094179;28;20047;-73
2021/03/02 00:18:57;;;;;;;37.70;18.65;;;128.20;1920.00;;;;;;5094140;28;20486;-73
2021/03/02 00:21:36;;;;;;;33.78;19.70;;;128.10;1868.80;;;;;;5094071;28;20138;-73
2021/03/02 00:24:09;;;;;;;31.02;18.33;;;128.20;1817.60;;;;;;5094418;28;20028;-72
2021/03/02 00:26:41;;;;;;;33.22;19.42;;;128.20;1868.80;;;;;;5094080;28;20380;-73
2021/03/02 00:29:08;;;;;;;31.30;19.00;;;128.20;1817.60;;;;;;5092697;28;20389;-75
2021/03/02 00:31:35;;;;;;;40.40;23.23;;;128.20;1843.20;;;;;;5093634;28;20020;-72
2021/03/02 00:34:01;;;;;;;48.28;26.88;;;128.10;1817.60;;;;;;5094099;28;20418;-72
2021/03/02 00:36:27;;;;;;;43.03;24.35;;;128.10;1817.60;;;;;;5093708;28;20473;-72
2021/03/02 00:38:53;;;;;;;43.35;23.08;;;128.10;1843.20;;;;;;5093811;28;20039;-75
2021/03/02 00:41:19;;;;;;;42.00;23.48;;;128.10;1817.60;;;;;;5093675;28;20032;-74
2021/03/02 00:43:45;;;;;;;44.53;25.48;;;128.10;1792.00;;;;;;5094014;28;20349;-73
2021/03/02 00:46:12;;;;;;;42.05;25.77;;;128.10;1792.00;;;;;;5093654;28;20538;-73
2021/03/02 00:48:37;;;;;;;42.45;24.88;;;128.10;1843.20;;;;;;5093732;28;20452;-73
2021/03/02 00:51:04;;;;;;;41.75;24.85;;;128.10;1792.00;;;;;;5093616;28;20066;-72
2021/03/02 00:53:30;;;;;;;37.80;21.75;;;128.00;1817.60;;;;;;5093619;28;20024;-73
2021/03/02 00:55:56;;;;;;;33.30;19.20;;;128.00;1843.20;;;;;;5093568;28;20055;-72
2021/03/02 00:58:21;;;;;;;36.83;20.48;;;103.30;1843.20;;;;;;5092018;28;20450;-73
2021/03/02 01:00:47;;;;;;;32.83;20.05;;;103.30;1817.60;;;;;;5092204;28;20024;-76
2021/03/02 01:03:13;;;;;;;35.75;20.15;;;103.30;1843.20;;;;;;5093569;28;20034;-75
2021/03/02 01:05:39;;;;;;;33.80;19.83;;;103.20;1792.00;;;;;;5092207;28;20028;-73
2021/03/02 01:08:06;;;;;;;32.67;19.85;;;103.30;1792.00;;;;;;5093483;28;20430;-75
2021/03/02 01:10:31;;;;;;;34.80;19.03;;;103.20;1817.60;;;;;;5092285;28;20024;-72
2021/03/02 01:12:57;;;;;;;37.35;20.48;;;103.30;1817.60;;;;;;5092117;28;20388;-76
2021/03/02 01:15:23;;;;;;;30.57;19.27;;;103.20;1843.20;;;;;;5093388;28;20020;-73
2021/03/02 01:17:49;;;;;;;37.57;21.27;;;103.20;1817.60;;;;;;5091950;28;20047;-73
2021/03/02 01:20:15;;;;;;;39.60;21.97;;;103.30;1766.40;;;;;;5093361;28;20024;-75
2021/03/02 01:22:41;;;;;;;35.92;21.80;;;103.30;1817.60;;;;;;5092270;28;20020;-72
2021/03/02 01:25:12;;;;;;;39.27;21.70;;;103.20;1792.00;;;;;;5093311;28;20046;-73
2021/03/02 01:27:39;;;;;;;40.00;21.77;;;103.10;1766.40;;;;;;5093337;28;20042;-72
2021/03/02 01:30:10;;;;;;;40.22;23.38;;;103.20;1868.80;;;;;;5093300;28;20024;-72
2021/03/02 01:32:36;;;;;;;35.90;19.60;;;102.80;2022.40;;;;;;5092046;28;20054;-73
2021/03/02 01:35:05;;;;;;;36.20;21.20;;;102.80;1920.00;;;;;;5093376;28;20016;-72
2021/03/02 01:37:31;;;;;;;35.47;19.47;;;102.80;1945.60;;;;;;5093186;28;20032;-72
2021/03/02 01:39:57;;;;;;;36.90;21.07;;;102.90;1868.80;;;;;;5093191;28;20070;-77
2021/03/02 01:42:23;;;;;;;41.57;23.10;;;102.90;1868.80;;;;;;5091876;28;20428;-76
2021/03/02 01:44:49;;;;;;;38.95;20.55;;;102.80;1971.20;;;;;;5095720;28;20028;-73
2021/03/02 01:47:14;;;;;;;36.00;20.17;;;102.80;1945.60;;;;;;5097128;28;20028;-72
2021/03/02 01:49:40;;;;;;;33.43;20.17;;;102.80;1894.40;;;;;;5097025;28;20016;-72
2021/03/02 01:52:07;;;;;;;32.67;18.97;;;102.70;1971.20;;;;;;5095685;28;20024;-75
2021/03/02 01:54:35;;;;;;;31.00;17.45;;;102.80;1868.80;;;;;;5096853;28;20102;-73
2021/03/02 01:57:01;;;;;;;32.23;19.03;;;102.70;1894.40;;;;;;5095314;28;20044;-73
2021/03/02 01:59:26;;;;;;;31.80;17.80;;;102.70;1894.40;;;;;;5097005;28;20103;-75
2021/03/02 02:01:54;;;;;;;33.50;18.83;;;102.80;1894.40;;;;;;5096715;28;20024;-75
2021/03/02 02:04:39;;;;;;;29.77;18.23;;;102.80;1868.80;;;;;;5096929;28;20020;-74
2021/03/02 02:07:11;;;;;;;36.97;19.50;;;102.70;1894.40;;;;;;5097028;28;20024;-76
2021/03/02 02:09:51;;;;;;;37.70;20.43;;;102.70;1868.80;;;;;;5095350;28;20136;-72
2021/03/02 02:12:37;;;;;;;31.50;18.43;;;102.60;1894.40;;;;;;5095243;28;20023;-72
2021/03/02 02:15:17;;;;;;;37.40;19.17;;;102.60;1945.60;;;;;;5096518;28;20027;-72
2021/03/02 02:17:58;;;;;;;34.60;19.60;;;102.60;1894.40;;;;;;5096333;28;20060;-72
2021/03/02 02:20:42;;;;;;;31.93;18.70;;;102.50;1945.60;;;;;;5096434;28;20023;-73
2021/03/02 02:23:11;;;;;;;32.53;17.88;;;102.50;1920.00;;;;;;5095082;28;20112;-72
2021/03/02 02:25:49;;;;;;;34.00;19.70;;;102.50;1894.40;;;;;;5096219;28;20429;-73
2021/03/02 02:28:17;;;;;;;34.47;19.33;;;102.60;1894.40;;;;;;5096239;28;20024;-73
2021/03/02 02:30:49;;;;;;;32.57;18.00;;;102.60;1920.00;;;;;;5096152;28;20028;-76
2021/03/02 02:33:16;;;;;;;32.70;18.80;;;102.50;1945.60;;;;;;5096177;28;20024;-73
2021/03/02 02:35:45;;;;;;;32.77;18.53;;;102.50;1945.60;;;;;;5096032;28;20020;-73
2021/03/02 02:38:15;;;;;;;35.20;19.47;;;102.50;1868.80;;;;;;5094722;28;20609;-72
2021/03/02 02:40:43;;;;;;;36.73;20.23;;;102.50;1894.40;;;;;;5094810;28;20440;-73
2021/03/02 02:43:10;;;;;;;38.07;19.83;;;102.40;1868.80;;;;;;5095899;28;20178;-77
2021/03/02 02:45:37;;;;;;;35.00;19.93;;;102.40;1920.00;;;;;;5095914;28;20024;-72
2021/03/02 02:48:04;;;;;;;36.37;19.80;;;77.70;1894.40;;;;;;5095849;28;20016;-73
2021/03/02 02:50:30;;;;;;;39.67;20.97;;;102.40;1868.80;;;;;;5095758;28;20028;-73
2021/03/02 02:52:58;;;;;;;34.13;19.63;;;102.40;1843.20;;;;;;5095763;28;20028;-77
2021/03/02 02:55:33;;;;;;;36.47;19.90;;;102.40;1817.60;;;;;;5095641;28;20027;-73
2021/03/02 02:58:02;;;;;;;39.13;20.30;;;102.50;1868.80;;;;;;5095341;28;20087;-74
2021/03/02 03:00:29;;;;;;;35.40;19.80;;;102.50;1843.20;;;;;;5095974;28;20012;-72
2021/03/02 03:02:56;;;;;;;36.70;18.83;;;102.50;1868.80;;;;;;5095592;28;20434;-72
2021/03/02 03:05:26;;;;;;;36.23;18.87;;;102.50;1843.20;;;;;;5095729;28;20457;-73
2021/03/02 03:07:56;;;;;;;30.87;18.40;;;102.40;1868.80;;;;;;5095808;28;20115;-77
2021/03/02 03:10:26;;;;;;;35.10;19.53;;;102.40;1920.00;;;;;;5095468;28;20028;-73
2021/03/02 03:12:55;;;;;;;38.53;20.43;;;77.70;1945.60;;;;;;5095366;28;20535;-73
2021/03/02 03:15:22;;;;;;;36.17;19.53;;;77.70;1920.00;;;;;;5093946;28;20119;-73
2021/03/02 03:17:54;;;;;;;36.10;19.63;;;77.60;1894.40;;;;;;5095303;28;20031;-73
2021/03/02 03:20:22;;;;;;;41.80;21.30;;;77.60;1868.80;;;;;;5095794;28;20024;-74
2021/03/02 03:22:48;;;;;;;41.80;22.37;;;77.50;1920.00;;;;;;5093937;28;20082;-77
2021/03/02 03:25:15;;;;;;;39.07;20.97;;;77.50;1894.40;;;;;;5095186;28;20028;-72
2021/03/02 03:27:46;;;;;;;43.43;22.37;;;77.50;1920.00;;;;;;5093820;28;20028;-73
2021/03/02 03:30:14;;;;;;;40.47;22.47;;;77.50;1945.60;;;;;;5094624;28;20024;-73
2021/03/02 03:32:44;;;;;;;40.93;21.73;;;77.50;1868.80;;;;;;5094570;28;20115;-73
2021/03/02 03:35:10;;;;;;;38.67;21.63;;;77.40;1996.80;;;;;;5091821;28;20429;-74
2021/03/02 03:37:36;;;;;;;40.80;21.83;;;77.40;1996.80;;;;;;5094355;28;20032;-77
2021/03/02 03:40:04;;;;;;;45.30;23.50;;;77.40;1971.20;;;;;;5094368;28;20522;-77
2021/03/02 03:42:29;;;;;;;48.57;23.80;;;77.40;1945.60;;;;;;5094281;28;20411;-77
2021/03/02 03:44:55;;;;;;;51.83;25.10;;;77.40;1920.00;;;;;;5094256;28;20027;-78
2021/03/02 03:47:21;;;;;;;47.20;22.83;;;77.40;1868.80;;;;;;5094244;28;20144;-74
2021/03/02 03:49:48;;;;;;;49.03;24.50;;;77.50;1971.20;;;;;;5094265;28;20024;-76
2021/03/02 03:52:17;;;;;;;49.47;25.17;;;77.50;1996.80;;;;;;5092959;28;20346;-77
2021/03/02 03:54:44;;;;;;;43.97;22.83;;;77.40;1920.00;;;;;;5094210;28;20480;-76
2021/03/02 03:57:11;;;;;;;47.63;22.07;;;77.40;1971.20;;;;;;5093711;28;20044;-77
2021/03/02 03:59:39;;;;;;;47.17;23.30;;;77.30;1996.80;;;;;;5094146;28;20022;-77
2021/03/02 04:02:07;;;;;;;48.07;24.17;;;77.30;1971.20;;;;;;5092698;28;20028;-73
2021/03/02 04:04:34;;;;;;;40.30;22.07;;;77.30;1894.40;;;;;;5091646;28;20073;-75
2021/03/02 04:07:00;;;;;;;51.10;25.30;;;77.30;2022.40;;;;;;5093330;28;20106;-73
2021/03/02 04:09:27;;;;;;;53.37;26.53;;;77.30;1996.80;;;;;;5093929;28;20023;-73
2021/03/02 04:11:55;;;;;;;49.17;26.60;;;77.20;1945.60;;;;;;5094033;28;20540;-77
2021/03/02 04:14:20;;;;;;;43.90;24.10;;;77.30;1996.80;;;;;;5093783;28;20110;-72
2021/03/02 04:16:46;;;;;;;49.07;25.33;;;77.30;1971.20;;;;;;5093509;28;20107;-74
2021/03/02 04:19:12;;;;;;;44.30;23.73;;;77.30;1996.80;;;;;;5093704;28;20016;-72
2021/03/02 04:21:38;;;;;;;57.20;28.63;;;77.30;2022.40;;;;;;5093695;28;20016;-72
2021/03/02 04:24:05;;;;;;;71.53;34.67;;;77.30;1971.20;;;;;;5093611;28;20016;-72
2021/03/02 04:26:31;;;;;;;57.73;29.17;;;77.30;2022.40;;;;;;5092355;28;20444;-78
2021/03/02 04:28:57;;;;;;;56.57;27.90;;;77.20;1971.20;;;;;;5093551;28;20024;-77
2021/03/02 04:31:22;;;;;;;46.17;25.60;;;77.20;1971.20;;;;;;5093494;28;20065;-77
2021/03/02 04:33:48;;;;;;;48.03;23.50;;;77.20;1996.80;;;;;;5093440;28;20016;-77
2021/03/02 04:36:14;;;;;;;50.00;24.80;;;77.20;2022.40;;;;;;5093441;28;20020;-77
2021/03/02 04:38:40;;;;;;;50.67;24.47;;;77.10;1996.80;;;;;;5093719;28;20032;-72
2021/03/02 04:41:06;;;;;;;47.10;25.87;;;77.10;1996.80;;;;;;5093778;28;20016;-72
2021/03/02 04:43:32;;;;;;;46.83;25.60;;;77.10;1945.60;;;;;;5092527;28;20028;-72
2021/03/02 04:45:58;;;;;;;49.63;24.93;;;77.20;1996.80;;;;;;5092405;28;20016;-76
2021/03/02 04:48:23;;;;;;;63.40;35.43;;;77.20;2048.00;;;;;;5093570;28;20434;-73
2021/03/02 04:50:49;;;;;;;72.87;42.20;;;77.20;2048.00;;;;;;5093691;28;20024;-72
2021/03/02 04:53:15;;;;;;;63.13;34.40;;;77.20;2022.40;;;;;;5093869;28;20046;-72
2021/03/02 04:55:41;;;;;;;62.27;34.73;;;77.20;2022.40;;;;;;5093564;28;20448;-72
2021/03/02 04:58:07;;;;;;;55.77;27.80;;;77.20;1971.20;;;;;;5093328;28;20105;-72
2021/03/02 05:00:33;;;;;;;63.87;32.57;;;77.20;1971.20;;;;;;5093576;28;20062;-71
2021/03/02 05:02:59;;;;;;;90.67;43.20;;;77.20;1971.20;;;;;;5093452;28;20024;-72
2021/03/02 05:05:25;;;;;;;75.43;40.03;;;77.10;2048.00;;;;;;5093458;28;20070;-72
2021/03/02 05:07:51;;;;;;;54.70;28.73;;;77.00;2048.00;;;;;;5093540;28;20024;-76
2021/03/02 05:10:16;;;;;;;60.90;31.10;;;77.00;1971.20;;;;;;5093412;28;20077;-72
2021/03/02 05:12:42;;;;;;;59.50;31.53;;;77.00;2022.40;;;;;;5093473;28;20103;-72
2021/03/02 05:15:09;;;;;;;59.77;32.67;;;77.00;2048.00;;;;;;5093485;28;20017;-71
2021/03/02 05:17:35;;;;;;;73.13;36.43;;;77.00;1971.20;;;;;;5093609;28;20405;-72
2021/03/02 05:20:01;;;;;;;67.17;33.80;;;76.90;2099.20;;;;;;5096331;28;20031;-73
2021/03/02 05:22:27;;;;;;;77.30;37.10;;;76.90;2099.20;;;;;;5097470;28;20017;-72
2021/03/02 05:24:53;;;;;;;74.27;38.93;;;77.00;2048.00;;;;;;5097323;28;20024;-72
2021/03/02 05:27:18;;;;;;;63.60;34.73;;;77.00;2073.60;;;;;;5097357;28;20051;-73
2021/03/02 05:29:44;;;;;;;67.87;35.57;;;76.90;2073.60;;;;;;5097400;28;20388;-72
2021/03/02 05:32:10;;;;;;;62.50;33.03;;;76.90;2073.60;;;;;;5097272;28;20024;-73
2021/03/02 05:34:36;;;;;;;70.27;34.83;;;76.90;2073.60;;;;;;5095980;28;20028;-72
2021/03/02 05:37:02;;;;;;;74.57;38.83;;;76.90;2048.00;;;;;;5097067;28;20028;-72
2021/03/02 05:39:28;;;;;;;99.53;56.77;;;76.90;2022.40;;;;;;5097157;28;20031;-72
2021/03/02 05:41:55;;;;;;;83.40;46.27;;;76.90;2099.20;;;;;;5097333;28;20016;-73
2021/03/02 05:44:21;;;;;;;76.10;43.53;;;76.90;2073.60;;;;;;5097082;28;20507;-77
2021/03/02 05:46:47;;;;;;;64.63;36.17;;;76.90;2073.60;;;;;;5097275;28;20027;-72
2021/03/02 05:49:14;;;;;;;70.70;36.23;;;77.00;2022.40;;;;;;5096980;28;20099;-72
2021/03/02 05:51:41;;;;;;;66.17;37.77;;;77.00;1996.80;;;;;;5096964;28;20568;-72
2021/03/02 05:54:09;;;;;;;93.40;50.03;;;77.00;2048.00;;;;;;5096893;28;20504;-72
2021/03/02 05:56:39;;;;;;;110.03;63.80;;;77.00;2150.40;;;;;;5096667;28;20035;-72
2021/03/02 05:59:05;;;;;;;119.63;69.97;;;77.00;2073.60;;;;;;5096872;28;20028;-72
2021/03/02 06:01:31;;;;;;;108.40;59.33;;;77.00;2073.60;;;;;;5096817;28;20024;-72
2021/03/02 06:03:57;;;;;;;93.13;52.50;;;77.00;2099.20;;;;;;5096693;28;20020;-72
2021/03/02 06:06:23;;;;;;;94.10;52.07;;;77.00;2048.00;;;;;;5096664;28;20020;-72
2021/03/02 06:08:49;;;;;;;93.27;54.23;;;77.00;2073.60;;;;;;5095253;28;20047;-72
2021/03/02 06:11:26;;;;;;;127.87;78.43;;;77.10;2022.40;;;;;;5096586;28;20016;-75
2021/03/02 06:13:52;;;;;;;159.27;84.57;;;77.20;2048.00;;;;;;5096571;28;20023;-72
2021/03/02 06:16:18;;;;;;;103.80;57.90;;;77.20;2048.00;;;;;;5096456;28;20020;-74
2021/03/02 06:18:53;;;;;;;78.77;44.77;;;77.20;2150.40;;;;;;5096333;28;20111;-71
2021/03/02 06:21:20;;;;;;;79.63;45.73;;;77.30;2022.40;;;;;;5096412;28;20125;-76
2021/03/02 06:23:51;;;;;;;93.93;52.73;;;77.30;2048.00;;;;;;5096242;28;20492;-76
2021/03/02 06:26:27;;;;;;;114.17;59.67;;;77.40;2022.40;;;;;;5096295;28;20345;-72
2021/03/02 06:28:58;;;;;;;104.97;59.43;;;77.40;2124.80;;;;;;5096198;28;20028;-72
2021/03/02 06:31:37;;;;;;;100.70;55.10;;;77.50;2099.20;;;;;;5095783;28;20020;-72
2021/03/02 06:34:08;;;;;;;110.70;57.70;;;77.50;2048.00;;;;;;5096184;28;20499;-74
2021/03/02 06:36:34;;;;;;;137.10;71.67;;;77.50;2073.60;;;;;;5096121;28;20020;-72
2021/03/02 06:39:22;;;;;;;139.20;69.23;;;77.60;2048.00;;;;;;5094657;28;20365;-72
2021/03/02 06:41:50;;;;;;;122.53;69.90;;;77.60;2048.00;;;;;;5096232;28;20507;-72
2021/03/02 06:44:16;;;;;;;144.03;72.00;;;77.70;2073.60;;;;;;5095985;28;20031;-72
2021/03/02 06:46:42;;;;;;;96.03;52.57;;;77.70;2073.60;;;;;;5095836;28;20031;-72
2021/03/02 06:49:09;;;;;;;88.80;47.20;;;77.60;2099.20;;;;;;5095832;28;20530;-72
2021/03/02 06:51:37;;;;;;;89.67;42.50;;;77.50;2022.40;;;;;;5095787;28;20419;-75
2021/03/02 06:54:15;;;;;;;80.03;42.00;;;77.60;1971.20;;;;;;5095648;28;20447;-74
2021/03/02 06:56:41;;;;;;;82.43;45.20;;;77.70;2048.00;;;;;;5095443;28;20047;-72
2021/03/02 06:59:18;;;;;;;88.07;49.77;;;102.40;2073.60;;;;;;5095688;28;20537;-72
2021/03/02 07:01:47;;;;;;;86.27;48.23;;;102.40;2099.20;;;;;;5095655;28;20522;-72
2021/03/02 07:04:20;;;;;;;83.20;48.83;;;102.50;2099.20;;;;;;5095785;28;20020;-72
2021/03/02 07:06:51;;;;;;;82.97;46.92;;;102.60;1996.80;;;;;;5095679;28;20016;-72
2021/03/02 07:09:17;;;;;;;86.30;49.00;;;102.70;2022.40;;;;;;5095726;28;20107;-72
2021/03/02 07:11:45;;;;;;;80.90;48.97;;;102.80;2048.00;;;;;;5095729;28;20024;-72
2021/03/02 07:14:12;;;;;;;80.53;47.07;;;103.00;1945.60;;;;;;5094075;28;20067;-72
2021/03/02 07:16:41;;;;;;;86.17;50.37;;;103.10;1945.60;;;;;;5095349;28;20107;-72
2021/03/02 07:19:09;;;;;;;92.23;52.53;;;128.00;1996.80;;;;;;5093981;28;20032;-72
2021/03/02 07:21:37;;;;;;;93.70;52.87;;;128.20;1920.00;;;;;;5095146;28;20546;-72
2021/03/02 07:24:12;;;;;;;95.85;53.30;;;128.50;1920.00;;;;;;5095117;28;20016;-74
2021/03/02 07:26:44;;;;;;;92.93;54.13;;;153.70;1894.40;;;;;;5093891;28;20020;-72
2021/03/02 07:29:10;;;;;;;85.78;55.42;;;154.40;1817.60;;;;;;5095063;28;20077;-72
2021/03/02 07:31:38;;;;;;;80.25;50.38;;;205.10;1715.20;;;;;;5095085;28;20032;-72
2021/03/02 07:34:10;;;;;;;84.85;53.70;;;231.20;1510.40;;;;;;5095265;28;20077;-73
2021/03/02 07:36:43;;;;;;;89.00;57.30;;;256.80;1408.00;;;;;;5094880;28;20031;-72
2021/03/02 07:39:15;;;;;;;97.32;63.45;;;307.40;1356.80;;;;;;5094548;28;20507;-74
2021/03/02 07:41:41;;;;;;;91.80;61.95;;;332.90;1280.00;;;;;;5091445;28;20020;-72
2021/03/02 07:44:07;;;;;;;105.95;69.03;;;333.70;1228.80;;;;;;5094331;28;20141;-75
2021/03/02 07:46:39;;;;;;;111.53;71.82;;;358.90;1177.60;;;;;;5092926;28;20023;-74
2021/03/02 07:49:24;;;;;;;91.35;61.05;;;384.00;1152.00;;;;;;5093318;28;20408;-75
2021/03/02 07:52:03;;;;;;;86.63;57.90;;;384.50;1126.40;;;;;;5091521;28;20035;-73
2021/03/02 07:54:33;;;;;;;107.50;74.25;;;409.70;1100.80;;;;;;5092937;28;20019;-74
2021/03/02 07:57:15;;;;;;;88.40;58.45;;;410.00;1049.60;;;;;;5090044;28;20079;-73
2021/03/02 07:59:45;;;;;;;90.35;59.80;;;410.30;1049.60;;;;;;5092189;28;20032;-72
2021/03/02 08:02:18;;;;;;;89.85;56.33;;;410.50;1024.00;;;;;;5093006;28;20032;-72
2021/03/02 08:04:49;;;;;;;68.30;46.55;;;410.50;1075.20;;;;;;5094358;28;20016;-73
2021/03/02 08:07:20;;;;;;;69.95;47.20;;;410.20;1049.60;;;;;;5094163;28;20111;-72
2021/03/02 08:09:47;;;;;;;70.75;48.58;;;410.10;1075.20;;;;;;5094127;28;20047;-73
2021/03/02 08:12:27;;;;;;;67.70;45.85;;;410.10;1100.80;;;;;;5094094;28;20012;-72
2021/03/02 08:14:54;;;;;;;64.50;44.97;;;410.10;1075.20;;;;;;5094004;28;20023;-74
2021/03/02 08:17:22;;;;;;;73.88;48.88;;;409.80;1075.20;;;;;;5093600;28;20032;-72
2021/03/02 08:20:09;;;;;;;72.82;49.78;;;384.70;1126.40;;;;;;5093236;28;20086;-75
2021/03/02 08:22:40;;;;;;;80.78;50.92;;;384.10;1177.60;;;;;;5093594;28;20037;-72
2021/03/02 08:25:13;;;;;;;80.60;54.25;;;359.10;1203.20;;;;;;5093539;28;20057;-73
2021/03/02 08:27:48;;;;;;;79.88;51.50;;;358.90;1228.80;;;;;;5093804;28;20024;-74
2021/03/02 08:30:26;;;;;;;79.57;51.22;;;358.80;1228.80;;;;;;5093572;28;20016;-73
2021/03/02 08:32:55;;;;;;;78.25;49.97;;;358.60;1254.40;;;;;;5093409;28;20020;-75
2021/03/02 08:35:27;;;;;;;68.53;43.63;;;358.60;1254.40;;;;;;5090868;28;20090;-75
2021/03/02 08:37:55;;;;;;;65.57;41.03;;;358.70;1228.80;;;;;;5093327;28;20028;-75
2021/03/02 08:40:43;;;;;;;70.70;40.03;;;358.50;1280.00;;;;;;5093758;28;20044;-73
2021/03/02 08:43:12;;;;;;;53.45;31.38;;;358.50;1228.80;;;;;;5093371;28;20071;-72
2021/03/02 08:45:55;;;;;;;50.13;30.33;;;358.50;1228.80;;;;;;5093779;28;20074;-72
2021/03/02 08:48:25;;;;;;;35.78;23.70;;;358.60;1254.40;;;;;;5093676;28;20403;-73
2021/03/02 08:50:58;;;;;;;35.08;22.25;;;333.60;1305.60;;;;;;5093553;28;20024;-74
2021/03/02 08:53:45;;;;;;;31.92;19.85;;;358.40;1280.00;;;;;;5093168;28;20031;-75
2021/03/02 08:56:20;;;;;;;28.10;18.80;;;333.50;1254.40;;;;;;5072024;28;20427;-73
2021/03/02 08:59:06;;;;;;;55.35;39.33;;;333.70;1280.00;;;;;;5084352;28;20172;-74
2021/03/02 09:01:42;;;;;;;29.95;19.98;;;358.80;1254.40;;;;;;5090466;28;20062;-74
2021/03/02 09:04:19;;;;;;;25.83;18.60;;;359.30;1228.80;;;;;;5092995;28;20024;-74
2021/03/02 09:06:46;;;;;;;26.33;18.05;;;384.30;1203.20;;;;;;5092890;28;20020;-75
2021/03/02 09:09:23;;;;;;;29.20;18.27;;;359.20;1177.60;;;;;;5091618;28;20464;-74
2021/03/02 09:11:52;;;;;;;24.33;17.60;;;358.70;1280.00;;;;;;5092771;28;20073;-75
2021/03/02 09:14:36;;;;;;;24.15;18.23;;;358.70;1228.80;;;;;;5092811;28;20464;-74
2021/03/02 09:17:03;;;;;;;25.10;18.08;;;359.30;1203.20;;;;;;5090543;28;20039;-75
2021/03/02 09:19:30;;;;;;;24.67;16.30;;;384.40;1177.60;;;;;;5092876;28;20055;-72
2021/03/02 09:22:07;;;;;;;24.13;17.25;;;384.30;1177.60;;;;;;5092944;28;20024;-74
2021/03/02 09:24:36;;;;;;;23.73;15.93;;;384.70;1126.40;;;;;;5090531;28;20054;-75
2021/03/02 09:27:10;;;;;;;31.38;16.45;;;384.40;1126.40;;;;;;5092847;28;20477;-72
2021/03/02 09:29:50;;;;;;;32.80;17.98;;;384.30;1152.00;;;;;;5090882;28;20110;-74
2021/03/02 09:32:25;;;;;;;32.70;23.80;;;384.10;1126.40;;;;;;5090826;28;20028;-73
2021/03/02 09:35:05;;;;;;;27.60;18.00;;;384.10;1203.20;;;;;;5089981;28;20099;-73
2021/03/02 09:37:35;;;;;;;35.10;19.45;;;359.10;1203.20;;;;;;5089847;28;20444;-74
2021/03/02 09:40:05;;;;;;;34.80;19.75;;;358.80;1177.60;;;;;;5091398;28;20376;-74
2021/03/02 09:42:33;;;;;;;31.95;18.38;;;358.50;1254.40;;;;;;5090086;28;20020;-74
2021/03/02 09:45:10;;;;;;;25.77;17.23;;;333.60;1228.80;;;;;;5092421;28;20395;-74
2021/03/02 09:47:38;;;;;;;34.90;20.25;;;333.40;1254.40;;;;;;5090800;28;20058;-75
2021/03/02 09:50:08;;;;;;;35.70;21.83;;;333.10;1305.60;;;;;;5092552;28;20046;-75
2021/03/02 09:52:36;;;;;;;32.17;21.17;;;333.10;1305.60;;;;;;5090511;28;20477;-75
2021/03/02 09:55:22;;;;;;;45.72;24.98;;;332.80;1356.80;;;;;;5092924;28;20099;-73
2021/03/02 09:58:11;;;;;;;185.32;41.58;;;308.10;1305.60;;;;;;5092648;28;20109;-74
2021/03/02 10:00:46;;;;;;;50.10;28.10;;;308.00;1356.80;;;;;;5092912;28;20081;-75
2021/03/02 10:03:23;;;;;;;44.08;26.55;;;332.80;1356.80;;;;;;5093009;28;20024;-72
2021/03/02 10:05:57;;;;;;;47.00;28.52;;;308.00;1331.20;;;;;;5095426;28;20039;-72
2021/03/02 10:08:37;;;;;;;34.92;24.20;;;307.90;1408.00;;;;;;5096607;28;20020;-72
2021/03/02 10:11:12;;;;;;;30.23;18.35;;;307.90;1356.80;;;;;;5096466;28;20475;-72
2021/03/02 10:13:47;;;;;;;106.03;65.72;;;308.00;1356.80;;;;;;5095199;28;20483;-73
2021/03/02 10:16:17;;;;;;;23.17;15.20;;;307.80;1356.80;;;;;;5096452;28;20510;-72
2021/03/02 10:18:52;;;;;;;21.52;14.55;;;307.90;1356.80;;;;;;5096619;28;20480;-72
2021/03/02 10:21:19;;;;;;;17.77;12.32;;;307.90;1382.40;;;;;;5096743;28;20027;-72
2021/03/02 10:23:46;;;;;;;18.05;12.48;;;308.00;1331.20;;;;;;5095837;28;20039;-74
2021/03/02 10:26:18;;;;;;;18.77;11.63;;;308.00;1331.20;;;;;;5093003;28;20377;-75
2021/03/02 10:28:44;;;;;;;18.05;11.20;;;308.00;1356.80;;;;;;5095708;28;20028;-74
2021/03/02 10:31:10;;;;;;;16.60;10.98;;;308.00;1331.20;;;;;;5094546;28;20028;-73
2021/03/02 10:33:36;;;;;;;19.08;11.13;;;308.10;1305.60;;;;;;5096146;28;20167;-75
2021/03/02 10:36:02;;;;;;;15.05;10.52;;;308.00;1331.20;;;;;;5096047;28;20020;-72
2021/03/02 10:38:28;;;;;;;15.15;9.93;;;308.10;1305.60;;;;;;5096160;28;20062;-74
2021/03/02 10:40:54;;;;;;;17.63;11.35;;;308.10;1305.60;;;;;;5095836;28;20023;-73
2021/03/02 10:43:20;;;;;;;18.63;10.82;;;332.80;1382.40;;;;;;5095932;28;20435;-73
2021/03/02 10:45:45;;;;;;;29.00;16.23;;;332.80;1331.20;;;;;;5095196;28;20034;-74
2021/03/02 10:48:11;;;;;;;62.60;47.45;;;332.80;1408.00;;;;;;5094094;28;20052;-72
2021/03/02 10:50:38;;;;;;;46.58;30.38;;;308.10;1305.60;;;;;;5095459;28;20028;-75
2021/03/02 10:53:04;;;;;;;19.85;11.57;;;308.00;1356.80;;;;;;5095263;28;20380;-72
2021/03/02 10:55:30;;;;;;;19.80;11.93;;;308.00;1356.80;;;;;;5093484;28;20495;-75
2021/03/02 10:57:56;;;;;;;18.30;12.43;;;308.10;1356.80;;;;;;5094945;28;20098;-73
2021/03/02 11:00:22;;;;;;;13.40;9.52;;;332.80;1331.20;;;;;;5094604;28;20035;-74
2021/03/02 11:02:48;;;;;;;12.77;9.38;;;332.80;1305.60;;;;;;5095053;28;20028;-74
2021/03/02 11:05:14;;;;;;;13.35;9.77;;;332.80;1331.20;;;;;;5095183;28;20058;-74
2021/03/02 11:07:40;;;;;;;21.70;14.45;;;332.90;1331.20;;;;;;5095331;28;20031;-73
2021/03/02 11:10:06;;;;;;;22.50;11.05;;;332.90;1331.20;;;;;;5094800;28;20028;-75
2021/03/02 11:12:32;;;;;;;19.58;11.25;;;333.10;1305.60;;;;;;5094736;28;20028;-71
2021/03/02 11:14:58;;;;;;;17.80;10.75;;;333.10;1356.80;;;;;;5093225;28;20016;-74
2021/03/02 11:17:24;;;;;;;22.98;14.85;;;333.10;1305.60;;;;;;5094977;28;20084;-72
2021/03/02 11:19:50;;;;;;;17.55;12.55;;;333.20;1356.80;;;;;;5094709;28;20381;-74
2021/03/02 11:22:15;;;;;;;22.13;13.05;;;333.20;1331.20;;;;;;5093408;28;20028;-75
2021/03/02 11:24:41;;;;;;;29.50;16.27;;;333.20;1280.00;;;;;;5094530;28;20036;-74
2021/03/02 11:27:07;;;;;;;32.97;19.80;;;333.20;1356.80;;;;;;5094592;28;20073;-74
2021/03/02 11:29:36;;;;;;;30.15;17.50;;;333.30;1305.60;;;;;;5093533;28;20040;-72
2021/03/02 11:32:05;;;;;;;25.67;13.32;;;333.30;1305.60;;;;;;5092755;28;20024;-73
2021/03/02 11:34:33;;;;;;;19.13;12.60;;;333.30;1331.20;;;;;;5094346;28;20074;-72
2021/03/02 11:36:58;;;;;;;19.83;12.07;;;333.30;1305.60;;;;;;5094323;28;20423;-72
2021/03/02 11:39:24;;;;;;;20.70;13.57;;;333.30;1305.60;;;;;;5094374;28;20024;-72
2021/03/02 11:41:50;;;;;;;17.27;11.30;;;333.30;1280.00;;;;;;5094208;28;20028;-73
2021/03/02 11:44:16;;;;;;;18.30;12.73;;;333.40;1305.60;;;;;;5094200;28;20073;-74
2021/03/02 11:46:42;;;;;;;17.50;11.68;;;333.50;1280.00;;;;;;5094173;28;20028;-72
2021/03/02 11:49:07;;;;;;;18.38;12.63;;;333.40;1254.40;;;;;;5094249;28;20503;-72
2021/03/02 11:51:33;;;;;;;17.27;11.90;;;333.40;1280.00;;;;;;5094054;28;20068;-71
2021/03/02 11:53:59;;;;;;;17.80;11.68;;;333.40;1280.00;;;;;;5093110;28;20541;-73
2021/03/02 11:56:25;;;;;;;38.05;12.38;;;333.50;1305.60;;;;;;5094122;28;20039;-73
2021/03/02 11:58:51;;;;;;;21.40;12.85;;;333.60;1331.20;;;;;;5094442;28;20059;-72
2021/03/02 12:01:17;;;;;;;18.15;12.02;;;333.70;1280.00;;;;;;5094334;28;20045;-72
2021/03/02 12:03:43;;;;;;;18.60;12.10;;;333.70;1254.40;;;;;;5094286;28;20028;-75
2021/03/02 12:06:09;;;;;;;22.90;12.82;;;358.40;1280.00;;;;;;5094470;28;20020;-74
2021/03/02 12:08:35;;;;;;;21.75;13.05;;;358.40;1254.40;;;;;;5094782;28;20394;-72
2021/03/02 12:11:01;;;;;;;19.77;12.40;;;358.40;1280.00;;;;;;5094236;28;20046;-73